sensor_id;sensor_type;location;lat;lon;timestamp;temperature;humidity
52643;DHT22;38531;53.296;6.614;2024-02-21T00:02:12;9.30;99.90
52643;DHT22;38531;53.296;6.614;2024-02-21T00:04:38;9.30;99.90
52643;DHT22;38531;53.296;6.614;2024-02-21T00:07:04;9.80;99.90
52643;DHT22;38531;53.296;6.614;2024-02-21T00:09:30;9.30;99.90
52643;DHT22;38531;53.296;6.614;2024-02-21T00:11:56;9.80;99.90
52643;DHT22;38531;53.296;6.614;2024-02-21T00:14:24;9.20;99.90
52643;DHT22;38531;53.296;6.614;2024-02-21T00:16:49;9.60;99.90
52643;DHT22;38531;53.296;6.614;2024-02-21T00:19:15;9.60;99.90
52643;DHT22;38531;53.296;6.614;2024-02-21T00:21:41;10.40;99.90
52643;DHT22;38531;53.296;6.614;2024-02-21T00:24:07;9.10;99.90
52643;DHT22;38531;53.296;6.614;2024-02-21T00:26:32;9.00;99.90
52643;DHT22;38531;53.296;6.614;2024-02-21T00:28:58;9.50;99.90
52643;DHT22;38531;53.296;6.614;2024-02-21T00:31:24;9.00;99.90
52643;DHT22;38531;53.296;6.614;2024-02-21T00:33:50;9.00;99.90
52643;DHT22;38531;53.296;6.614;2024-02-21T00:36:16;8.90;99.90
52643;DHT22;38531;53.296;6.614;2024-02-21T00:38:42;9.40;99.90
52643;DHT22;38531;53.296;6.614;2024-02-21T00:41:07;8.90;99.90
52643;DHT22;38531;53.296;6.614;2024-02-21T00:43:33;9.40;99.90
52643;DHT22;38531;53.296;6.614;2024-02-21T00:45:59;8.90;99.90
52643;DHT22;38531;53.296;6.614;2024-02-21T00:48:25;8.90;99.90
52643;DHT22;38531;53.296;6.614;2024-02-21T00:50:50;9.20;99.90
52643;DHT22;38531;53.296;6.614;2024-02-21T00:53:18;8.90;99.90
52643;DHT22;38531;53.296;6.614;2024-02-21T00:55:44;8.90;99.90
52643;DHT22;38531;53.296;6.614;2024-02-21T00:58:10;8.30;99.90
52643;DHT22;38531;53.296;6.614;2024-02-21T01:00:36;8.90;99.90
52643;DHT22;38531;53.296;6.614;2024-02-21T01:03:02;8.80;99.90
52643;DHT22;38531;53.296;6.614;2024-02-21T01:05:28;8.80;99.90
52643;DHT22;38531;53.296;6.614;2024-02-21T01:07:54;9.00;99.90
52643;DHT22;38531;53.296;6.614;2024-02-21T01:14:01;8.90;99.90
52643;DHT22;38531;53.296;6.614;2024-02-21T01:16:27;8.80;99.90
52643;DHT22;38531;53.296;6.614;2024-02-21T01:18:53;8.80;99.90
52643;DHT22;38531;53.296;6.614;2024-02-21T01:21:18;8.80;99.90
52643;DHT22;38531;53.296;6.614;2024-02-21T01:23:44;8.70;99.90
52643;DHT22;38531;53.296;6.614;2024-02-21T01:26:10;8.70;99.90
52643;DHT22;38531;53.296;6.614;2024-02-21T01:28:39;9.20;99.90
52643;DHT22;38531;53.296;6.614;2024-02-21T01:31:04;8.80;99.90
52643;DHT22;38531;53.296;6.614;2024-02-21T01:33:33;9.10;99.90
52643;DHT22;38531;53.296;6.614;2024-02-21T01:36:04;9.90;99.90
52643;DHT22;38531;53.296;6.614;2024-02-21T01:38:32;8.70;99.90
52643;DHT22;38531;53.296;6.614;2024-02-21T01:40:58;8.20;99.90
52643;DHT22;38531;53.296;6.614;2024-02-21T01:43:23;8.60;99.90
52643;DHT22;38531;53.296;6.614;2024-02-21T01:45:53;9.30;99.90
52643;DHT22;38531;53.296;6.614;2024-02-21T01:48:20;9.30;99.90
52643;DHT22;38531;53.296;6.614;2024-02-21T01:50:47;8.70;99.90
52643;DHT22;38531;53.296;6.614;2024-02-21T01:53:18;8.70;99.90
52643;DHT22;38531;53.296;6.614;2024-02-21T01:55:49;8.60;99.90
52643;DHT22;38531;53.296;6.614;2024-02-21T01:58:18;8.60;99.90
52643;DHT22;38531;53.296;6.614;2024-02-21T02:00:46;8.60;99.90
52643;DHT22;38531;53.296;6.614;2024-02-21T02:03:13;8.90;99.90
52643;DHT22;38531;53.296;6.614;2024-02-21T02:05:49;8.60;99.90
52643;DHT22;38531;53.296;6.614;2024-02-21T02:08:16;8.80;99.90
52643;DHT22;38531;53.296;6.614;2024-02-21T02:10:42;8.60;99.90
52643;DHT22;38531;53.296;6.614;2024-02-21T02:13:09;8.60;99.90
52643;DHT22;38531;53.296;6.614;2024-02-21T02:15:44;10.20;99.90
52643;DHT22;38531;53.296;6.614;2024-02-21T02:18:11;9.90;99.90
52643;DHT22;38531;53.296;6.614;2024-02-21T02:20:38;9.30;99.90
52643;DHT22;38531;53.296;6.614;2024-02-21T02:23:08;8.60;99.90
52643;DHT22;38531;53.296;6.614;2024-02-21T02:25:36;8.80;99.90
52643;DHT22;38531;53.296;6.614;2024-02-21T02:28:03;8.60;99.90
52643;DHT22;38531;53.296;6.614;2024-02-21T02:30:31;8.50;99.90
52643;DHT22;38531;53.296;6.614;2024-02-21T02:32:57;8.60;99.90
52643;DHT22;38531;53.296;6.614;2024-02-21T02:35:25;8.70;99.90
52643;DHT22;38531;53.296;6.614;2024-02-21T02:37:51;8.60;99.90
52643;DHT22;38531;53.296;6.614;2024-02-21T02:40:18;9.80;99.90
52643;DHT22;38531;53.296;6.614;2024-02-21T02:42:44;9.20;99.90
52643;DHT22;38531;53.296;6.614;2024-02-21T02:45:11;8.80;99.90
52643;DHT22;38531;53.296;6.614;2024-02-21T02:47:39;8.60;99.90
52643;DHT22;38531;53.296;6.614;2024-02-21T02:50:06;8.70;99.90
52643;DHT22;38531;53.296;6.614;2024-02-21T02:52:32;8.60;99.90
52643;DHT22;38531;53.296;6.614;2024-02-21T02:54:58;9.50;99.90
52643;DHT22;38531;53.296;6.614;2024-02-21T02:57:23;8.70;99.90
52643;DHT22;38531;53.296;6.614;2024-02-21T02:59:50;8.90;99.90
52643;DHT22;38531;53.296;6.614;2024-02-21T03:02:17;8.60;99.90
52643;DHT22;38531;53.296;6.614;2024-02-21T03:04:46;8.60;99.90
52643;DHT22;38531;53.296;6.614;2024-02-21T03:07:12;8.60;99.90
52643;DHT22;38531;53.296;6.614;2024-02-21T03:09:38;9.10;99.90
52643;DHT22;38531;53.296;6.614;2024-02-21T03:12:05;10.20;99.90
52643;DHT22;38531;53.296;6.614;2024-02-21T03:14:32;8.20;99.90
52643;DHT22;38531;53.296;6.614;2024-02-21T03:17:01;8.60;99.90
52643;DHT22;38531;53.296;6.614;2024-02-21T03:19:27;9.30;99.90
52643;DHT22;38531;53.296;6.614;2024-02-21T03:21:53;8.60;99.90
52643;DHT22;38531;53.296;6.614;2024-02-21T03:24:20;8.60;99.90
52643;DHT22;38531;53.296;6.614;2024-02-21T03:26:46;8.60;99.90
52643;DHT22;38531;53.296;6.614;2024-02-21T03:29:14;8.60;99.90
52643;DHT22;38531;53.296;6.614;2024-02-21T03:31:40;8.60;99.90
52643;DHT22;38531;53.296;6.614;2024-02-21T03:34:06;8.60;99.90
52643;DHT22;38531;53.296;6.614;2024-02-21T03:36:32;8.60;99.90
52643;DHT22;38531;53.296;6.614;2024-02-21T03:38:58;8.60;99.90
52643;DHT22;38531;53.296;6.614;2024-02-21T03:41:24;8.60;99.90
52643;DHT22;38531;53.296;6.614;2024-02-21T03:43:49;8.60;99.90
52643;DHT22;38531;53.296;6.614;2024-02-21T03:46:15;8.60;99.90
52643;DHT22;38531;53.296;6.614;2024-02-21T03:48:41;8.60;99.90
52643;DHT22;38531;53.296;6.614;2024-02-21T03:51:08;8.50;99.90
52643;DHT22;38531;53.296;6.614;2024-02-21T03:53:33;8.60;99.90
52643;DHT22;38531;53.296;6.614;2024-02-21T03:56:03;8.60;99.90
52643;DHT22;38531;53.296;6.614;2024-02-21T03:58:32;8.60;99.90
52643;DHT22;38531;53.296;6.614;2024-02-21T04:01:02;8.50;99.90
52643;DHT22;38531;53.296;6.614;2024-02-21T04:03:28;8.60;99.90
52643;DHT22;38531;53.296;6.614;2024-02-21T04:05:54;8.60;99.90
52643;DHT22;38531;53.296;6.614;2024-02-21T04:08:20;9.40;99.90
52643;DHT22;38531;53.296;6.614;2024-02-21T04:10:47;8.60;99.90
52643;DHT22;38531;53.296;6.614;2024-02-21T04:13:13;9.00;99.90
52643;DHT22;38531;53.296;6.614;2024-02-21T04:15:38;8.50;99.90
52643;DHT22;38531;53.296;6.614;2024-02-21T04:18:04;8.60;99.90
52643;DHT22;38531;53.296;6.614;2024-02-21T04:20:30;8.60;99.90
52643;DHT22;38531;53.296;6.614;2024-02-21T04:22:56;8.70;99.90
52643;DHT22;38531;53.296;6.614;2024-02-21T04:25:22;8.50;99.90
52643;DHT22;38531;53.296;6.614;2024-02-21T04:27:48;8.50;99.90
52643;DHT22;38531;53.296;6.614;2024-02-21T04:30:14;9.30;99.90
52643;DHT22;38531;53.296;6.614;2024-02-21T04:32:41;8.50;99.90
52643;DHT22;38531;53.296;6.614;2024-02-21T04:35:07;8.60;99.90
52643;DHT22;38531;53.296;6.614;2024-02-21T04:37:33;8.60;99.90
52643;DHT22;38531;53.296;6.614;2024-02-21T04:39:59;9.00;99.90
52643;DHT22;38531;53.296;6.614;2024-02-21T04:42:25;8.60;99.90
52643;DHT22;38531;53.296;6.614;2024-02-21T04:44:51;8.60;99.90
52643;DHT22;38531;53.296;6.614;2024-02-21T04:47:17;8.60;99.90
52643;DHT22;38531;53.296;6.614;2024-02-21T04:49:44;9.70;99.90
52643;DHT22;38531;53.296;6.614;2024-02-21T04:52:10;8.70;99.90
52643;DHT22;38531;53.296;6.614;2024-02-21T04:54:36;9.00;99.90
52643;DHT22;38531;53.296;6.614;2024-02-21T04:57:01;8.60;99.90
52643;DHT22;38531;53.296;6.614;2024-02-21T04:59:27;8.70;99.90
52643;DHT22;38531;53.296;6.614;2024-02-21T05:01:53;9.70;99.90
52643;DHT22;38531;53.296;6.614;2024-02-21T05:04:19;8.60;99.90
52643;DHT22;38531;53.296;6.614;2024-02-21T05:06:44;9.00;99.90
52643;DHT22;38531;53.296;6.614;2024-02-21T05:09:10;8.50;99.90
52643;DHT22;38531;53.296;6.614;2024-02-21T05:11:36;8.90;99.90
52643;DHT22;38531;53.296;6.614;2024-02-21T05:14:03;9.00;99.90
52643;DHT22;38531;53.296;6.614;2024-02-21T05:16:30;8.50;99.90
52643;DHT22;38531;53.296;6.614;2024-02-21T05:18:56;8.50;99.90
52643;DHT22;38531;53.296;6.614;2024-02-21T05:21:24;9.30;99.90
52643;DHT22;38531;53.296;6.614;2024-02-21T05:23:51;8.50;99.90
52643;DHT22;38531;53.296;6.614;2024-02-21T05:26:24;9.70;99.90
52643;DHT22;38531;53.296;6.614;2024-02-21T05:28:50;8.50;99.90
52643;DHT22;38531;53.296;6.614;2024-02-21T05:31:17;8.50;99.90
52643;DHT22;38531;53.296;6.614;2024-02-21T05:33:44;8.50;99.90
52643;DHT22;38531;53.296;6.614;2024-02-21T05:36:10;9.90;99.90
52643;DHT22;38531;53.296;6.614;2024-02-21T05:38:36;9.30;99.90
52643;DHT22;38531;53.296;6.614;2024-02-21T05:41:03;8.80;99.90
52643;DHT22;38531;53.296;6.614;2024-02-21T05:43:28;8.50;99.90
52643;DHT22;38531;53.296;6.614;2024-02-21T05:45:54;8.50;99.90
52643;DHT22;38531;53.296;6.614;2024-02-21T05:48:21;8.50;99.90
52643;DHT22;38531;53.296;6.614;2024-02-21T05:50:47;8.30;99.90
52643;DHT22;38531;53.296;6.614;2024-02-21T05:53:13;9.20;99.90
52643;DHT22;38531;53.296;6.614;2024-02-21T05:55:39;8.50;99.90
52643;DHT22;38531;53.296;6.614;2024-02-21T05:58:05;8.50;99.90
52643;DHT22;38531;53.296;6.614;2024-02-21T06:00:32;8.50;99.90
52643;DHT22;38531;53.296;6.614;2024-02-21T06:02:58;9.00;99.90
52643;DHT22;38531;53.296;6.614;2024-02-21T06:05:24;8.50;99.90
52643;DHT22;38531;53.296;6.614;2024-02-21T06:07:50;8.50;99.90
52643;DHT22;38531;53.296;6.614;2024-02-21T06:10:15;8.50;99.90
52643;DHT22;38531;53.296;6.614;2024-02-21T06:12:41;8.40;99.90
52643;DHT22;38531;53.296;6.614;2024-02-21T06:15:07;8.50;99.90
52643;DHT22;38531;53.296;6.614;2024-02-21T06:17:33;8.30;99.90
52643;DHT22;38531;53.296;6.614;2024-02-21T06:19:59;8.40;99.90
52643;DHT22;38531;53.296;6.614;2024-02-21T06:22:25;8.50;99.90
52643;DHT22;38531;53.296;6.614;2024-02-21T06:24:50;8.40;99.90
52643;DHT22;38531;53.296;6.614;2024-02-21T06:27:16;8.50;99.90
52643;DHT22;38531;53.296;6.614;2024-02-21T06:29:42;8.50;99.90
52643;DHT22;38531;53.296;6.614;2024-02-21T06:32:08;8.40;99.90
52643;DHT22;38531;53.296;6.614;2024-02-21T06:34:34;8.50;99.90
52643;DHT22;38531;53.296;6.614;2024-02-21T06:37:00;8.40;99.90
52643;DHT22;38531;53.296;6.614;2024-02-21T06:39:25;9.70;99.90
52643;DHT22;38531;53.296;6.614;2024-02-21T06:41:51;9.40;99.90
52643;DHT22;38531;53.296;6.614;2024-02-21T06:44:21;8.50;99.90
52643;DHT22;38531;53.296;6.614;2024-02-21T06:46:47;9.40;99.90
52643;DHT22;38531;53.296;6.614;2024-02-21T06:49:13;8.60;99.90
52643;DHT22;38531;53.296;6.614;2024-02-21T06:51:44;8.60;99.90
52643;DHT22;38531;53.296;6.614;2024-02-21T06:54:10;9.50;99.90
52643;DHT22;38531;53.296;6.614;2024-02-21T06:56:36;9.10;99.90
52643;DHT22;38531;53.296;6.614;2024-02-21T06:59:02;8.50;99.90
52643;DHT22;38531;53.296;6.614;2024-02-21T07:01:31;8.40;99.90
52643;DHT22;38531;53.296;6.614;2024-02-21T07:03:57;9.20;99.90
52643;DHT22;38531;53.296;6.614;2024-02-21T07:06:23;8.60;99.90
52643;DHT22;38531;53.296;6.614;2024-02-21T07:08:48;9.30;99.90
52643;DHT22;38531;53.296;6.614;2024-02-21T07:11:14;8.50;99.90
52643;DHT22;38531;53.296;6.614;2024-02-21T07:13:40;8.80;99.90
52643;DHT22;38531;53.296;6.614;2024-02-21T07:16:06;8.80;99.90
52643;DHT22;38531;53.296;6.614;2024-02-21T07:18:32;8.50;99.90
52643;DHT22;38531;53.296;6.614;2024-02-21T07:20:58;8.60;99.90
52643;DHT22;38531;53.296;6.614;2024-02-21T07:23:24;9.90;99.90
52643;DHT22;38531;53.296;6.614;2024-02-21T07:25:50;8.50;99.90
52643;DHT22;38531;53.296;6.614;2024-02-21T07:28:16;9.10;99.90
52643;DHT22;38531;53.296;6.614;2024-02-21T07:30:43;8.50;99.90
52643;DHT22;38531;53.296;6.614;2024-02-21T07:33:11;8.50;99.90
52643;DHT22;38531;53.296;6.614;2024-02-21T07:35:37;9.10;99.90
52643;DHT22;38531;53.296;6.614;2024-02-21T07:38:06;9.30;99.90
52643;DHT22;38531;53.296;6.614;2024-02-21T07:40:32;8.60;99.90
52643;DHT22;38531;53.296;6.614;2024-02-21T07:42:58;8.50;99.90
52643;DHT22;38531;53.296;6.614;2024-02-21T07:45:24;8.50;99.90
52643;DHT22;38531;53.296;6.614;2024-02-21T07:47:50;8.50;99.90
52643;DHT22;38531;53.296;6.614;2024-02-21T07:50:16;8.50;99.90
52643;DHT22;38531;53.296;6.614;2024-02-21T07:52:43;8.60;99.90
52643;DHT22;38531;53.296;6.614;2024-02-21T07:55:11;8.60;99.90
52643;DHT22;38531;53.296;6.614;2024-02-21T07:57:37;8.60;99.90
52643;DHT22;38531;53.296;6.614;2024-02-21T08:00:03;8.50;99.90
52643;DHT22;38531;53.296;6.614;2024-02-21T08:02:35;8.50;99.90
52643;DHT22;38531;53.296;6.614;2024-02-21T08:05:01;8.60;99.90
52643;DHT22;38531;53.296;6.614;2024-02-21T08:07:27;8.60;99.90
52643;DHT22;38531;53.296;6.614;2024-02-21T08:09:54;8.60;99.90
52643;DHT22;38531;53.296;6.614;2024-02-21T08:12:20;9.60;99.90
52643;DHT22;38531;53.296;6.614;2024-02-21T08:14:46;8.60;99.90
52643;DHT22;38531;53.296;6.614;2024-02-21T08:17:11;8.60;99.90
52643;DHT22;38531;53.296;6.614;2024-02-21T08:19:37;9.40;99.90
52643;DHT22;38531;53.296;6.614;2024-02-21T08:22:03;9.30;99.90
52643;DHT22;38531;53.296;6.614;2024-02-21T08:24:28;8.70;99.90
52643;DHT22;38531;53.296;6.614;2024-02-21T08:26:54;8.70;99.90
52643;DHT22;38531;53.296;6.614;2024-02-21T08:29:20;8.70;99.90
52643;DHT22;38531;53.296;6.614;2024-02-21T08:31:45;8.70;99.90
52643;DHT22;38531;53.296;6.614;2024-02-21T08:34:11;9.70;99.90
52643;DHT22;38531;53.296;6.614;2024-02-21T08:36:38;8.80;99.90
52643;DHT22;38531;53.296;6.614;2024-02-21T08:39:04;9.20;99.90
52643;DHT22;38531;53.296;6.614;2024-02-21T08:41:34;8.80;99.90
52643;DHT22;38531;53.296;6.614;2024-02-21T08:44:00;10.00;99.90
52643;DHT22;38531;53.296;6.614;2024-02-21T08:46:26;8.80;99.90
52643;DHT22;38531;53.296;6.614;2024-02-21T08:48:54;8.80;99.90
52643;DHT22;38531;53.296;6.614;2024-02-21T08:51:20;9.30;99.90
52643;DHT22;38531;53.296;6.614;2024-02-21T08:53:46;9.60;99.90
52643;DHT22;38531;53.296;6.614;2024-02-21T08:56:12;8.80;99.90
52643;DHT22;38531;53.296;6.614;2024-02-21T08:58:39;8.90;99.90
52643;DHT22;38531;53.296;6.614;2024-02-21T09:01:06;9.90;99.90
52643;DHT22;38531;53.296;6.614;2024-02-21T09:03:38;8.90;99.90
52643;DHT22;38531;53.296;6.614;2024-02-21T09:06:07;8.80;99.90
52643;DHT22;38531;53.296;6.614;2024-02-21T09:08:33;8.90;99.90
52643;DHT22;38531;53.296;6.614;2024-02-21T09:11:02;9.30;99.90
52643;DHT22;38531;53.296;6.614;2024-02-21T09:13:28;8.90;99.90
52643;DHT22;38531;53.296;6.614;2024-02-21T09:15:55;8.90;99.90
52643;DHT22;38531;53.296;6.614;2024-02-21T09:18:21;8.90;99.90
52643;DHT22;38531;53.296;6.614;2024-02-21T09:20:47;9.20;99.90
52643;DHT22;38531;53.296;6.614;2024-02-21T09:23:13;8.90;99.90
52643;DHT22;38531;53.296;6.614;2024-02-21T09:25:39;8.90;99.90
52643;DHT22;38531;53.296;6.614;2024-02-21T09:28:05;8.90;99.90
52643;DHT22;38531;53.296;6.614;2024-02-21T09:30:32;9.90;99.90
52643;DHT22;38531;53.296;6.614;2024-02-21T09:32:58;8.90;99.90
52643;DHT22;38531;53.296;6.614;2024-02-21T09:35:28;9.50;99.90
52643;DHT22;38531;53.296;6.614;2024-02-21T09:37:54;8.90;99.90
52643;DHT22;38531;53.296;6.614;2024-02-21T09:40:20;8.90;99.90
52643;DHT22;38531;53.296;6.614;2024-02-21T09:42:47;9.00;99.90
52643;DHT22;38531;53.296;6.614;2024-02-21T09:45:20;9.00;99.90
52643;DHT22;38531;53.296;6.614;2024-02-21T09:50:50;9.00;99.90
52643;DHT22;38531;53.296;6.614;2024-02-21T09:53:18;9.00;99.90
52643;DHT22;38531;53.296;6.614;2024-02-21T09:55:45;9.10;99.90
52643;DHT22;38531;53.296;6.614;2024-02-21T09:58:12;9.30;99.90
52643;DHT22;38531;53.296;6.614;2024-02-21T10:00:38;9.60;99.90
52643;DHT22;38531;53.296;6.614;2024-02-21T10:03:04;9.00;99.90
52643;DHT22;38531;53.296;6.614;2024-02-21T10:05:36;9.70;99.90
52643;DHT22;38531;53.296;6.614;2024-02-21T10:08:03;9.40;99.90
52643;DHT22;38531;53.296;6.614;2024-02-21T10:10:28;9.10;99.90
52643;DHT22;38531;53.296;6.614;2024-02-21T10:12:56;9.10;99.90
52643;DHT22;38531;53.296;6.614;2024-02-21T10:15:24;9.80;99.90
52643;DHT22;38531;53.296;6.614;2024-02-21T10:18:02;9.10;99.90
52643;DHT22;38531;53.296;6.614;2024-02-21T10:20:29;9.10;99.90
52643;DHT22;38531;53.296;6.614;2024-02-21T10:23:05;9.10;99.90
52643;DHT22;38531;53.296;6.614;2024-02-21T10:25:37;9.20;99.90
52643;DHT22;38531;53.296;6.614;2024-02-21T10:28:14;9.20;99.90
52643;DHT22;38531;53.296;6.614;2024-02-21T10:30:52;9.10;99.90
52643;DHT22;38531;53.296;6.614;2024-02-21T10:33:18;9.60;99.90
52643;DHT22;38531;53.296;6.614;2024-02-21T10:35:47;9.20;99.90
52643;DHT22;38531;53.296;6.614;2024-02-21T10:38:15;9.20;99.90
52643;DHT22;38531;53.296;6.614;2024-02-21T10:40:41;9.20;99.90
52643;DHT22;38531;53.296;6.614;2024-02-21T10:43:12;9.20;99.90
52643;DHT22;38531;53.296;6.614;2024-02-21T10:45:39;9.30;99.90
52643;DHT22;38531;53.296;6.614;2024-02-21T10:48:12;9.30;99.90
52643;DHT22;38531;53.296;6.614;2024-02-21T10:50:46;9.30;99.90
52643;DHT22;38531;53.296;6.614;2024-02-21T10:53:20;9.40;99.90
52643;DHT22;38531;53.296;6.614;2024-02-21T10:55:58;9.60;99.90
52643;DHT22;38531;53.296;6.614;2024-02-21T10:58:28;10.80;99.90
52643;DHT22;38531;53.296;6.614;2024-02-21T11:00:55;9.40;99.90
52643;DHT22;38531;53.296;6.614;2024-02-21T11:03:21;9.30;99.90
52643;DHT22;38531;53.296;6.614;2024-02-21T11:05:48;9.80;99.90
52643;DHT22;38531;53.296;6.614;2024-02-21T11:08:14;9.30;99.90
52643;DHT22;38531;53.296;6.614;2024-02-21T11:10:46;9.40;99.90
52643;DHT22;38531;53.296;6.614;2024-02-21T11:13:11;9.50;99.90
52643;DHT22;38531;53.296;6.614;2024-02-21T11:15:39;10.40;99.90
52643;DHT22;38531;53.296;6.614;2024-02-21T11:18:04;9.50;99.90
52643;DHT22;38531;53.296;6.614;2024-02-21T11:20:34;9.70;99.90
52643;DHT22;38531;53.296;6.614;2024-02-21T11:23:00;9.70;99.90
52643;DHT22;38531;53.296;6.614;2024-02-21T11:25:37;10.50;99.90
52643;DHT22;38531;53.296;6.614;2024-02-21T11:28:05;10.00;99.90
52643;DHT22;38531;53.296;6.614;2024-02-21T11:30:35;9.90;99.90
52643;DHT22;38531;53.296;6.614;2024-02-21T11:33:02;9.90;99.90
52643;DHT22;38531;53.296;6.614;2024-02-21T11:35:32;9.90;99.90
52643;DHT22;38531;53.296;6.614;2024-02-21T11:38:12;10.40;99.90
52643;DHT22;38531;53.296;6.614;2024-02-21T11:40:44;10.00;99.90
52643;DHT22;38531;53.296;6.614;2024-02-21T11:43:10;10.40;99.90
52643;DHT22;38531;53.296;6.614;2024-02-21T11:45:39;9.90;99.90
52643;DHT22;38531;53.296;6.614;2024-02-21T11:48:08;10.00;99.90
52643;DHT22;38531;53.296;6.614;2024-02-21T11:50:36;9.90;99.90
52643;DHT22;38531;53.296;6.614;2024-02-21T11:53:04;9.90;99.90
52643;DHT22;38531;53.296;6.614;2024-02-21T11:55:30;9.80;99.90
52643;DHT22;38531;53.296;6.614;2024-02-21T11:57:56;9.90;99.90
52643;DHT22;38531;53.296;6.614;2024-02-21T12:00:22;9.40;99.90
52643;DHT22;38531;53.296;6.614;2024-02-21T12:02:50;9.90;99.90
52643;DHT22;38531;53.296;6.614;2024-02-21T12:05:16;10.20;99.90
52643;DHT22;38531;53.296;6.614;2024-02-21T12:07:42;9.80;99.90
52643;DHT22;38531;53.296;6.614;2024-02-21T12:10:12;9.10;99.90
52643;DHT22;38531;53.296;6.614;2024-02-21T12:12:38;9.80;99.90
52643;DHT22;38531;53.296;6.614;2024-02-21T12:15:05;9.80;99.90
52643;DHT22;38531;53.296;6.614;2024-02-21T12:17:35;8.90;99.90
52643;DHT22;38531;53.296;6.614;2024-02-21T12:20:02;9.80;99.90
52643;DHT22;38531;53.296;6.614;2024-02-21T12:22:31;9.80;99.90
52643;DHT22;38531;53.296;6.614;2024-02-21T12:25:03;9.90;99.90
52643;DHT22;38531;53.296;6.614;2024-02-21T12:27:29;9.90;99.90
52643;DHT22;38531;53.296;6.614;2024-02-21T12:29:55;10.50;99.90
52643;DHT22;38531;53.296;6.614;2024-02-21T12:32:21;9.80;99.90
52643;DHT22;38531;53.296;6.614;2024-02-21T12:34:46;10.00;99.90
52643;DHT22;38531;53.296;6.614;2024-02-21T12:37:12;10.40;99.90
52643;DHT22;38531;53.296;6.614;2024-02-21T12:39:41;9.90;99.90
52643;DHT22;38531;53.296;6.614;2024-02-21T12:42:16;10.10;99.90
52643;DHT22;38531;53.296;6.614;2024-02-21T12:44:42;9.90;99.90
52643;DHT22;38531;53.296;6.614;2024-02-21T12:47:08;9.90;99.90
52643;DHT22;38531;53.296;6.614;2024-02-21T12:49:34;9.90;99.90
52643;DHT22;38531;53.296;6.614;2024-02-21T12:52:00;9.90;99.90
52643;DHT22;38531;53.296;6.614;2024-02-21T12:54:26;9.90;99.90
52643;DHT22;38531;53.296;6.614;2024-02-21T12:56:52;10.00;99.90
52643;DHT22;38531;53.296;6.614;2024-02-21T12:59:17;9.90;99.90
52643;DHT22;38531;53.296;6.614;2024-02-21T13:01:43;9.90;99.90
52643;DHT22;38531;53.296;6.614;2024-02-21T13:04:09;10.00;99.90
52643;DHT22;38531;53.296;6.614;2024-02-21T13:06:34;10.00;99.90
52643;DHT22;38531;53.296;6.614;2024-02-21T13:09:02;10.40;99.90
52643;DHT22;38531;53.296;6.614;2024-02-21T13:11:30;10.00;99.90
52643;DHT22;38531;53.296;6.614;2024-02-21T13:13:56;10.00;99.90
52643;DHT22;38531;53.296;6.614;2024-02-21T13:16:23;10.00;99.90
52643;DHT22;38531;53.296;6.614;2024-02-21T13:18:48;10.10;99.90
52643;DHT22;38531;53.296;6.614;2024-02-21T13:21:14;10.10;99.90
52643;DHT22;38531;53.296;6.614;2024-02-21T13:23:40;10.50;99.90
52643;DHT22;38531;53.296;6.614;2024-02-21T13:26:06;10.10;99.90
52643;DHT22;38531;53.296;6.614;2024-02-21T13:28:31;10.20;99.90
52643;DHT22;38531;53.296;6.614;2024-02-21T13:30:57;10.20;99.90
52643;DHT22;38531;53.296;6.614;2024-02-21T13:33:23;11.10;99.90
52643;DHT22;38531;53.296;6.614;2024-02-21T13:35:48;10.40;99.90
52643;DHT22;38531;53.296;6.614;2024-02-21T13:38:14;10.30;99.90
52643;DHT22;38531;53.296;6.614;2024-02-21T13:40:40;10.40;99.90
52643;DHT22;38531;53.296;6.614;2024-02-21T13:43:07;11.30;99.90
52643;DHT22;38531;53.296;6.614;2024-02-21T13:45:33;10.40;99.90
52643;DHT22;38531;53.296;6.614;2024-02-21T13:47:59;10.40;99.90
52643;DHT22;38531;53.296;6.614;2024-02-21T13:50:30;10.50;99.90
52643;DHT22;38531;53.296;6.614;2024-02-21T13:52:56;10.30;99.90
52643;DHT22;38531;53.296;6.614;2024-02-21T13:55:22;10.40;99.90
52643;DHT22;38531;53.296;6.614;2024-02-21T13:57:52;10.30;99.90
52643;DHT22;38531;53.296;6.614;2024-02-21T14:00:18;10.30;99.90
52643;DHT22;38531;53.296;6.614;2024-02-21T14:02:44;10.30;99.90
52643;DHT22;38531;53.296;6.614;2024-02-21T14:05:10;10.20;99.90
52643;DHT22;38531;53.296;6.614;2024-02-21T14:07:37;10.60;99.90
52643;DHT22;38531;53.296;6.614;2024-02-21T14:10:03;10.10;99.90
52643;DHT22;38531;53.296;6.614;2024-02-21T14:12:29;10.10;99.90
52643;DHT22;38531;53.296;6.614;2024-02-21T14:14:55;9.10;99.90
52643;DHT22;38531;53.296;6.614;2024-02-21T14:17:24;10.10;99.90
52643;DHT22;38531;53.296;6.614;2024-02-21T14:19:50;10.40;99.90
52643;DHT22;38531;53.296;6.614;2024-02-21T14:22:17;9.40;99.90
52643;DHT22;38531;53.296;6.614;2024-02-21T14:24:43;10.00;99.90
52643;DHT22;38531;53.296;6.614;2024-02-21T14:30:49;10.00;99.90
52643;DHT22;38531;53.296;6.614;2024-02-21T14:33:19;9.80;99.90
52643;DHT22;38531;53.296;6.614;2024-02-21T14:35:52;10.00;99.90
52643;DHT22;38531;53.296;6.614;2024-02-21T14:38:19;10.20;99.90
52643;DHT22;38531;53.296;6.614;2024-02-21T14:40:45;10.10;99.90
52643;DHT22;38531;53.296;6.614;2024-02-21T14:43:11;9.90;99.90
52643;DHT22;38531;53.296;6.614;2024-02-21T14:45:37;9.90;99.90
52643;DHT22;38531;53.296;6.614;2024-02-21T14:48:04;9.90;99.90
52643;DHT22;38531;53.296;6.614;2024-02-21T14:50:30;9.80;99.90
52643;DHT22;38531;53.296;6.614;2024-02-21T14:52:56;9.80;99.90
52643;DHT22;38531;53.296;6.614;2024-02-21T14:55:22;9.80;99.90
52643;DHT22;38531;53.296;6.614;2024-02-21T14:57:48;9.80;99.90
52643;DHT22;38531;53.296;6.614;2024-02-21T15:00:14;9.80;99.90
52643;DHT22;38531;53.296;6.614;2024-02-21T15:02:40;9.70;99.90
52643;DHT22;38531;53.296;6.614;2024-02-21T15:05:06;9.60;99.90
52643;DHT22;38531;53.296;6.614;2024-02-21T15:07:32;9.80;99.90
52643;DHT22;38531;53.296;6.614;2024-02-21T15:09:58;9.60;99.90
52643;DHT22;38531;53.296;6.614;2024-02-21T15:12:24;9.50;99.90
52643;DHT22;38531;53.296;6.614;2024-02-21T15:14:51;9.60;99.90
52643;DHT22;38531;53.296;6.614;2024-02-21T15:17:17;9.70;99.90
52643;DHT22;38531;53.296;6.614;2024-02-21T15:19:44;9.50;99.90
52643;DHT22;38531;53.296;6.614;2024-02-21T15:22:13;9.40;99.90
52643;DHT22;38531;53.296;6.614;2024-02-21T15:24:40;9.50;99.90
52643;DHT22;38531;53.296;6.614;2024-02-21T15:27:06;10.50;99.90
52643;DHT22;38531;53.296;6.614;2024-02-21T15:29:34;9.70;99.90
52643;DHT22;38531;53.296;6.614;2024-02-21T15:32:02;9.50;99.90
52643;DHT22;38531;53.296;6.614;2024-02-21T15:34:28;9.40;99.90
52643;DHT22;38531;53.296;6.614;2024-02-21T15:36:54;9.40;99.90
52643;DHT22;38531;53.296;6.614;2024-02-21T15:39:19;9.30;99.90
52643;DHT22;38531;53.296;6.614;2024-02-21T15:41:45;9.40;99.90
52643;DHT22;38531;53.296;6.614;2024-02-21T15:44:11;9.40;99.90
52643;DHT22;38531;53.296;6.614;2024-02-21T15:46:37;9.40;99.90
52643;DHT22;38531;53.296;6.614;2024-02-21T15:49:03;9.40;99.90
52643;DHT22;38531;53.296;6.614;2024-02-21T15:51:29;9.20;99.90
52643;DHT22;38531;53.296;6.614;2024-02-21T15:53:59;9.60;99.90